Terminal Aerodrome Forecast
Issued by NWS

Home | Current Version | Previous Version | Graphics & Text | Print | Product List | Glossary On
Versions: 1 2 3 4 5 6 7 8 9 10 11 12 13 14 15
517
FTUS41 KCLE 261739
TAFFDY
TAF
KFDY 261739Z 2618/2718 22008KT P6SM BKN040 BKN250
     FM262100 20008KT P6SM -SHRA BKN050
      TEMPO 2621/2623 23010G20KT 5SM -TSRA BKN040CB
     FM262300 18004KT P6SM BKN080
     FM271000 20005KT 4SM BR BKN250
     FM271300 20006KT P6SM BKN250=

USA.gov is the U.S. government's official web portal to all federal, state and local government web resources and services.